首页
METAR-TAF:

METAR-TAF

机场 :

圖爾恰, 罗马尼亚

纬度: 45-11N, 经度: 028-49E, 海拔: 4米

当前天气观测

该预报发布于21分钟前的06:00 UTC
风速3节,风向北转西北,在西北之间变化
温度 13°C
湿度 94%
气压 1019 hPa
能見度: 8000
少量云层高于100英尺
多云层高于1400英尺

METAR: LRTC 170600Z 33003KT 310V010 8000 FEW001 BKN014 13/12 Q1019

时间: 09:21 (06:21 UTC)

预报

该预报发布于1小时和21分钟前的05:00 UTC
预报有效从17日的 06点(UTC)到 17日的 15点(UTC)
风速4节,风向多变
能見度: 1500
多云层高于1500英尺
轻雾
短暂存在
从 17日的 06点(UTC)到 17日的 08点(UTC)
能見度: 0800
多云层高于200英尺
成为
从 17日的 08点(UTC)到 17日的 10点(UTC)
能见度10公里或以上
1500米以下无云,无积雨云

TAF: LRTC 170500Z 1706/1715 VRB04KT 1500 BR BKN015 TEMPO 1706/1708 0800 FG BKN002 BECMG 1708/1710 CAVOK

超过4000个机场的气象观测和天气预报(METAR&TAF报告)。

可查询的气象台以黄色和红色小点在地图上表示。

将鼠标移到小点上方,可查看气象台名称。

然后点击查看天气观测和预报。

如需切换地图:点击带黑十字的绿色按钮放大地图;点击带横线的绿色按钮缩小地图;或者点击绿色箭头查看邻近地区的地图。


METAR-TAF: